KCOF/COF METAR and TAF weather

Enter ICAO airport designator
Station Type Date Time Source
KCOF METAR 2020/02/24 23:56 UTC NOAA

KCOF 242356Z AUTO 18009KT 10SM CLR 20/18 A3001 RMK AO2 SLP167 T02030175 10240 20203 55002 $


Station Type Date Time Source
KCOF Decoded METAR 2020/02/24 23:56 UTC NOAA

Cocoa / Patrick Air Force Base, FL, United States (KCOF) 28-14N 080-36W 3M
Feb 24, 2020 - 06:56 PM EST / 2020.02.24 2356 UTC
Wind: from the S (180 degrees) at 10 MPH (9 KT):0
Visibility: 10 mile(s):0
Sky conditions: clear
Temperature: 68.5 F (20.3 C)
Dew Point: 63.5 F (17.5 C)
Relative Humidity: 83%
Pressure (altimeter): 30.01 in. Hg (1016 hPa)
Pressure tendency: 0.01 inches (0.2 hPa) lower than three hours ago
ob: KCOF 242356Z AUTO 18009KT 10SM CLR 20/18 A3001 RMK AO2 SLP167 T02030175 10240 20203 55002
cycle: 0

Station Type Date Time Source
KCOF TAF 2020/02/24 19:15 UTC NOAA

TAF KCOF 241900Z 2419/2601 15015KT 9999 SCT030 SCT250 QNH2997INS
BECMG 2514/2515 19010G15KT 9999 FEW025 SCT150 QNH2991INS
BECMG 2523/2524 VRB06KT 9999 SCT030 QNH2989INS TX25/2519Z TN18/2511Z

Example: see airport list